Main page
METAR-TAF:

METAR-TAF

Airports :

Kake Airport

Kake, Alaska, United States

latitude: 56-57N, longitude: 133-54W, elevation: 171 ft

Current weather observation

The report was made 46 minutes ago, at 10:56 UTC
Wind 6 mph from the East/Northeast
Temperature 52°F
Humidity 100%
Pressure 29.81 in. Hg
Visibility: 10 miles
Overcast at a height of 6500 ft

METAR: PAFE 231056Z AUTO 07005KT 10SM OVC065 11/11 A2981 RMK AO2 SLP105 T01110106

Time: 03:42 (11:42 UTC)


TAF: missing

Weather observations and forecasts of more than 4000 airports (METAR and TAF reports).

The available stations are represented by yellow and red dots on the map.

Hover mouse over dot to see the name of the station.

Then click to see weather observations and forecasts.

To change the map : click on the green buttons with a black cross to zoom in, on the green button with a dash to zoom out, or on the green arrows for adjacent maps.


METAR-TAF: